createdAt,value
2023-02-27T00:00:15.202Z,1.67
2023-02-27T00:02:46.868Z,1.60
2023-02-27T00:05:14.400Z,1.40
2023-02-27T00:07:41.849Z,1.35
2023-02-27T00:10:10.058Z,1.52
2023-02-27T00:12:38.608Z,1.48
2023-02-27T00:15:06.571Z,1.55
2023-02-27T00:17:36.408Z,1.40
2023-02-27T00:20:13.559Z,1.52
2023-02-27T00:22:41.424Z,1.30
2023-02-27T00:25:09.817Z,1.50
2023-02-27T00:27:37.097Z,1.35
2023-02-27T00:30:09.866Z,1.70
2023-02-27T00:32:36.832Z,1.20
2023-02-27T00:35:13.309Z,1.60
2023-02-27T00:37:47.321Z,1.75
2023-02-27T00:40:16.880Z,1.52
2023-02-27T00:42:49.573Z,2.60
2023-02-27T00:45:24.081Z,1.38
2023-02-27T00:47:58.677Z,1.50
2023-02-27T00:50:27.593Z,1.40
2023-02-27T00:52:54.444Z,1.55
2023-02-27T00:55:22.507Z,1.15
2023-02-27T00:57:57.250Z,1.23
2023-02-27T01:00:29.564Z,1.45
2023-02-27T01:02:56.660Z,1.23
2023-02-27T01:05:24.328Z,1.40
2023-02-27T01:07:54.478Z,1.50
2023-02-27T01:10:23.936Z,1.25
2023-02-27T01:12:54.069Z,1.30
2023-02-27T01:15:21.085Z,1.40
2023-02-27T01:17:49.376Z,1.60
2023-02-27T01:20:19.189Z,1.33
2023-02-27T01:22:46.357Z,1.20
2023-02-27T01:25:13.148Z,1.42
2023-02-27T01:27:43.476Z,2.15
2023-02-27T01:30:11.744Z,1.02
2023-02-27T01:32:41.026Z,1.10
2023-02-27T01:35:22.921Z,1.60
2023-02-27T01:37:50.695Z,1.40
2023-02-27T01:40:20.105Z,1.50
2023-02-27T01:42:47.306Z,1.58
2023-02-27T01:45:29.121Z,1.23
2023-02-27T01:48:28.377Z,1.50
2023-02-27T01:51:01.658Z,1.65
2023-02-27T01:53:31.044Z,1.38
2023-02-27T01:56:06.427Z,1.52
2023-02-27T01:58:34.033Z,1.35
2023-02-27T02:01:01.787Z,1.75
2023-02-27T02:03:54.816Z,1.38
2023-02-27T02:06:21.888Z,1.38
2023-02-27T02:08:49.745Z,1.90
2023-02-27T02:11:19.390Z,1.70
2023-02-27T02:13:46.567Z,1.52
2023-02-27T02:16:16.261Z,1.27
2023-02-27T02:19:01.450Z,1.75
2023-02-27T02:21:51.488Z,1.45
2023-02-27T02:24:27.577Z,1.42
2023-02-27T02:26:59.443Z,1.50
2023-02-27T02:29:50.866Z,1.10
2023-02-27T02:32:19.483Z,1.30
2023-02-27T02:35:24.108Z,1.20
2023-02-27T02:38:25.822Z,1.50
2023-02-27T02:40:55.565Z,1.58
2023-02-27T02:43:45.917Z,1.50
2023-02-27T02:46:27.744Z,1.70
2023-02-27T02:49:03.146Z,1.25
2023-02-27T02:51:35.214Z,1.20
2023-02-27T02:54:27.420Z,1.55
2023-02-27T02:57:07.335Z,1.65
2023-02-27T02:59:42.263Z,1.50
2023-02-27T03:02:12.356Z,1.40
2023-02-27T03:04:42.749Z,1.38
2023-02-27T03:07:20.391Z,1.40
2023-02-27T03:10:05.280Z,1.67
2023-02-27T03:12:33.892Z,1.33
2023-02-27T03:15:09.439Z,1.92
2023-02-27T03:17:59.702Z,1.48
2023-02-27T03:20:31.304Z,1.40
2023-02-27T03:23:01.822Z,1.30
2023-02-27T03:25:28.923Z,1.55
2023-02-27T03:28:01.004Z,1.63
2023-02-27T03:30:33.365Z,1.65
2023-02-27T03:33:17.435Z,1.70
2023-02-27T03:35:56.862Z,1.40
2023-02-27T03:38:38.610Z,1.45
2023-02-27T03:41:19.320Z,1.45
2023-02-27T03:43:57.681Z,1.52
2023-02-27T03:46:26.956Z,1.20
2023-02-27T03:48:54.091Z,1.90
2023-02-27T03:51:23.676Z,1.45
2023-02-27T03:54:13.733Z,1.10
2023-02-27T03:57:03.347Z,1.50
2023-02-27T03:59:31.836Z,1.50
2023-02-27T04:02:00.049Z,1.52
2023-02-27T04:04:28.126Z,1.73
2023-02-27T04:07:43.256Z,1.63
2023-02-27T04:10:25.241Z,1.40
2023-02-27T04:13:15.137Z,1.38
2023-02-27T04:16:00.801Z,1.60
2023-02-27T04:18:51.691Z,1.35
2023-02-27T04:21:33.604Z,1.65
2023-02-27T04:24:12.602Z,1.63
2023-02-27T04:26:57.271Z,1.30
2023-02-27T04:29:50.075Z,1.60
2023-02-27T04:32:26.504Z,1.70
2023-02-27T04:35:00.099Z,1.50
2023-02-27T04:37:37.779Z,1.60
2023-02-27T04:40:10.258Z,1.75
2023-02-27T04:42:43.423Z,1.48
2023-02-27T04:45:15.346Z,1.58
2023-02-27T04:47:53.712Z,1.67
2023-02-27T04:50:25.746Z,1.45
2023-02-27T04:53:00.233Z,1.30
2023-02-27T04:55:30.863Z,1.50
2023-02-27T04:58:19.291Z,1.60
2023-02-27T05:00:49.566Z,1.83
2023-02-27T05:03:22.095Z,1.75
2023-02-27T05:05:49.852Z,1.52
2023-02-27T05:08:39.304Z,1.50
2023-02-27T05:11:10.054Z,1.45
2023-02-27T05:14:02.668Z,1.65
2023-02-27T05:16:36.230Z,1.50
2023-02-27T05:19:03.748Z,1.38
2023-02-27T05:21:36.397Z,1.75
2023-02-27T05:24:41.080Z,1.67
2023-02-27T05:27:20.913Z,2.10
2023-02-27T05:29:59.521Z,1.90
2023-02-27T05:32:38.932Z,1.75
2023-02-27T05:35:18.716Z,1.63
2023-02-27T05:37:51.709Z,1.70
2023-02-27T05:40:23.000Z,1.80
2023-02-27T05:43:00.231Z,1.50
2023-02-27T05:45:30.106Z,1.65
2023-02-27T05:48:00.790Z,1.73
2023-02-27T05:50:30.870Z,1.85
2023-02-27T05:53:01.005Z,1.73
2023-02-27T05:55:33.967Z,1.88
2023-02-27T05:58:20.827Z,2.08
2023-02-27T06:01:06.386Z,1.60
2023-02-27T06:03:34.971Z,2.08
2023-02-27T06:06:05.046Z,2.10
2023-02-27T06:08:32.073Z,2.03
2023-02-27T06:10:59.002Z,2.22
2023-02-27T06:13:26.396Z,2.58
2023-02-27T06:15:53.494Z,2.30
2023-02-27T06:18:20.456Z,2.22
2023-02-27T06:20:47.481Z,2.65
2023-02-27T06:23:14.991Z,2.40
2023-02-27T06:25:44.632Z,3.03
2023-02-27T06:28:11.811Z,2.63
2023-02-27T06:30:38.862Z,2.53
2023-02-27T06:33:05.908Z,2.13
2023-02-27T06:35:41.725Z,2.45
2023-02-27T06:38:08.605Z,2.47
2023-02-27T06:40:35.311Z,2.50
2023-02-27T06:43:05.640Z,2.47
2023-02-27T06:45:32.457Z,2.47
2023-02-27T06:47:59.239Z,1.95
2023-02-27T06:50:26.110Z,2.65
2023-02-27T06:52:52.798Z,2.40
2023-02-27T06:55:22.640Z,2.15
2023-02-27T06:57:49.746Z,2.33
2023-02-27T07:00:17.169Z,2.47
2023-02-27T07:02:43.957Z,2.90
2023-02-27T07:05:13.556Z,2.35
2023-02-27T07:07:43.290Z,2.28
2023-02-27T07:10:15.498Z,2.17
2023-02-27T07:12:42.359Z,2.63
2023-02-27T07:15:09.377Z,2.38
2023-02-27T07:17:36.620Z,2.10
2023-02-27T07:20:04.594Z,2.25
2023-02-27T07:22:31.435Z,8.77
2023-02-27T07:25:06.057Z,9.35
2023-02-27T07:27:33.379Z,7.03
2023-02-27T07:30:02.915Z,3.00
2023-02-27T07:32:29.588Z,2.45
2023-02-27T07:34:56.379Z,4.30
2023-02-27T07:37:23.163Z,4.10
2023-02-27T07:39:50.616Z,4.38
2023-02-27T07:42:17.858Z,3.40
2023-02-27T07:44:44.560Z,2.50
2023-02-27T07:47:11.530Z,3.92
2023-02-27T07:49:38.332Z,4.18
2023-02-27T07:52:05.085Z,3.63
2023-02-27T07:54:39.317Z,8.27
2023-02-27T07:57:06.477Z,8.35
2023-02-27T07:59:33.382Z,11.38
2023-02-27T08:02:00.120Z,2.60
2023-02-27T08:04:26.850Z,2.95
2023-02-27T08:06:53.562Z,2.25
2023-02-27T08:09:20.289Z,1.90
2023-02-27T08:11:48.966Z,2.57
2023-02-27T08:14:16.121Z,2.00
2023-02-27T08:16:42.816Z,1.90
2023-02-27T08:19:09.495Z,2.50
2023-02-27T08:21:36.325Z,2.50
2023-02-27T08:24:03.069Z,3.10
2023-02-27T08:26:31.338Z,3.03
2023-02-27T08:28:58.533Z,3.00
2023-02-27T08:31:25.454Z,3.20
2023-02-27T08:34:01.052Z,2.70
2023-02-27T08:36:34.561Z,3.10
2023-02-27T08:39:01.295Z,2.77
2023-02-27T08:41:28.118Z,2.70
2023-02-27T08:43:54.997Z,4.43
2023-02-27T08:46:21.729Z,3.07
2023-02-27T08:48:48.406Z,2.93
2023-02-27T08:51:15.298Z,11.43
2023-02-27T08:53:41.965Z,3.00
2023-02-27T08:56:08.865Z,3.27
2023-02-27T08:58:36.019Z,2.77
2023-02-27T09:01:03.694Z,3.17
2023-02-27T09:03:31.393Z,8.43
2023-02-27T09:05:59.111Z,2.80
2023-02-27T09:08:25.900Z,2.93
2023-02-27T09:10:56.608Z,3.17
2023-02-27T09:13:23.456Z,3.07
2023-02-27T09:15:50.191Z,2.53
2023-02-27T09:18:24.869Z,2.70
2023-02-27T09:20:52.479Z,2.30
2023-02-27T09:23:21.574Z,2.38
2023-02-27T09:25:51.278Z,2.20
2023-02-27T09:28:18.201Z,2.53
2023-02-27T09:30:45.070Z,2.43
2023-02-27T09:33:11.845Z,2.20
2023-02-27T09:35:38.513Z,2.00
2023-02-27T09:38:05.537Z,1.87
2023-02-27T09:40:36.732Z,1.97
2023-02-27T09:43:14.681Z,1.90
2023-02-27T09:45:43.039Z,1.85
2023-02-27T09:48:35.369Z,1.88
2023-02-27T09:51:02.688Z,1.63
2023-02-27T09:53:35.779Z,1.67
2023-02-27T09:56:05.628Z,1.63
2023-02-27T09:58:43.381Z,1.55
2023-02-27T10:01:15.208Z,1.98
2023-02-27T10:04:52.992Z,2.08
2023-02-27T10:07:47.559Z,1.60
2023-02-27T10:10:25.092Z,1.75
2023-02-27T10:13:13.846Z,2.80
2023-02-27T10:15:54.946Z,1.53
2023-02-27T10:18:29.022Z,1.90
2023-02-27T10:21:07.928Z,1.70
2023-02-27T10:23:42.805Z,1.83
2023-02-27T10:26:30.228Z,1.57
2023-02-27T10:28:59.758Z,1.60
2023-02-27T10:31:32.179Z,1.33
2023-02-27T10:34:03.659Z,1.25
2023-02-27T10:36:34.765Z,1.52
2023-02-27T10:39:09.209Z,1.33
2023-02-27T10:41:36.759Z,1.60
2023-02-27T10:44:04.089Z,1.70
2023-02-27T10:46:33.120Z,1.47
2023-02-27T10:49:01.865Z,1.50
2023-02-27T10:51:31.789Z,1.40
2023-02-27T10:54:21.562Z,1.60
2023-02-27T10:56:51.031Z,1.40
2023-02-27T10:59:28.729Z,1.40
2023-02-27T11:01:57.960Z,1.48
2023-02-27T11:04:26.451Z,1.45
2023-02-27T11:06:54.434Z,1.77
2023-02-27T11:09:32.155Z,1.83
2023-02-27T11:12:29.017Z,1.50
2023-02-27T11:15:16.046Z,1.30
2023-02-27T11:17:43.773Z,1.77
2023-02-27T11:20:32.348Z,1.48
2023-02-27T11:23:07.130Z,1.58
2023-02-27T11:25:34.098Z,1.50
2023-02-27T11:28:19.421Z,1.50
2023-02-27T11:31:05.647Z,1.30
2023-02-27T11:33:36.280Z,1.63
2023-02-27T11:36:03.787Z,1.80
2023-02-27T11:38:31.515Z,1.52
2023-02-27T11:41:04.491Z,1.63
2023-02-27T11:43:42.744Z,1.50
2023-02-27T11:46:47.266Z,2.08
2023-02-27T11:49:10.338Z,1.73
2023-02-27T11:52:02.023Z,1.60
2023-02-27T11:54:34.750Z,1.80
2023-02-27T11:57:13.286Z,1.63
2023-02-27T11:59:43.540Z,1.42
2023-02-27T12:02:24.941Z,2.03
2023-02-27T12:05:16.843Z,1.87
2023-02-27T12:08:01.540Z,2.10
2023-02-27T12:10:31.326Z,1.70
2023-02-27T12:13:10.336Z,1.90
2023-02-27T12:15:40.106Z,1.70
2023-02-27T12:18:20.369Z,2.03
2023-02-27T12:20:58.020Z,1.67
2023-02-27T12:23:31.836Z,1.53
2023-02-27T12:26:12.969Z,1.60
2023-02-27T12:28:50.337Z,1.40
2023-02-27T12:31:32.879Z,1.30
2023-02-27T12:34:09.303Z,1.73
2023-02-27T12:36:36.254Z,1.43
2023-02-27T12:39:04.815Z,1.23
2023-02-27T12:41:44.050Z,1.10
2023-02-27T12:44:28.482Z,1.37
2023-02-27T12:47:13.478Z,1.33
2023-02-27T12:49:55.153Z,1.33
2023-02-27T12:52:43.675Z,1.40
2023-02-27T12:55:15.444Z,1.13
2023-02-27T12:58:01.129Z,1.60
2023-02-27T13:00:38.714Z,1.47
2023-02-27T13:03:13.115Z,1.50
2023-02-27T13:05:49.663Z,1.70
2023-02-27T13:08:47.802Z,1.50
2023-02-27T13:11:27.492Z,1.53
2023-02-27T13:14:25.563Z,1.77
2023-02-27T13:17:14.426Z,1.60
2023-02-27T13:19:48.293Z,1.47
2023-02-27T13:22:52.359Z,1.70
2023-02-27T13:25:21.764Z,1.67
2023-02-27T13:28:02.272Z,1.37
2023-02-27T13:30:49.753Z,1.60
2023-02-27T13:33:22.641Z,1.40
2023-02-27T13:35:56.727Z,1.20
2023-02-27T13:38:46.540Z,1.40
2023-02-27T13:41:27.889Z,1.30
2023-02-27T13:44:00.090Z,1.00
2023-02-27T13:46:28.332Z,1.17
2023-02-27T13:49:06.047Z,1.00
2023-02-27T13:51:36.120Z,1.10
2023-02-27T13:54:17.875Z,1.20
2023-02-27T13:56:47.701Z,1.20
2023-02-27T13:59:37.074Z,1.10
2023-02-27T14:02:49.448Z,0.90
2023-02-27T14:05:31.006Z,0.80
2023-02-27T14:08:20.484Z,1.20
2023-02-27T14:11:16.120Z,1.30
2023-02-27T14:13:54.569Z,1.23
2023-02-27T14:16:44.210Z,1.10
2023-02-27T14:19:19.752Z,1.40
2023-02-27T14:22:11.657Z,1.23
2023-02-27T14:25:01.088Z,1.10
2023-02-27T14:27:55.209Z,1.07
2023-02-27T14:30:41.099Z,1.07
2023-02-27T14:33:47.074Z,1.00
2023-02-27T14:36:25.990Z,1.17
2023-02-27T14:38:57.970Z,1.00
2023-02-27T14:41:52.423Z,1.17
2023-02-27T14:44:24.763Z,1.00
2023-02-27T14:46:54.219Z,1.00
2023-02-27T14:49:27.751Z,0.90
2023-02-27T14:51:55.289Z,1.10
2023-02-27T14:54:27.475Z,1.20
2023-02-27T14:57:05.573Z,1.20
2023-02-27T14:59:41.163Z,1.27
2023-02-27T15:02:26.298Z,1.10
2023-02-27T15:04:56.780Z,1.00
2023-02-27T15:07:28.658Z,1.53
2023-02-27T15:09:58.369Z,1.00
2023-02-27T15:12:26.683Z,1.30
2023-02-27T15:14:59.267Z,0.90
2023-02-27T15:17:28.646Z,1.23
2023-02-27T15:19:57.636Z,1.13
2023-02-27T15:22:38.535Z,1.33
2023-02-27T15:25:07.849Z,1.00
2023-02-27T15:27:37.181Z,1.20
2023-02-27T15:30:05.002Z,1.00
2023-02-27T15:32:38.437Z,1.23
2023-02-27T15:35:12.411Z,1.40
2023-02-27T15:37:39.272Z,1.00
2023-02-27T15:40:10.804Z,1.40
2023-02-27T15:42:37.642Z,1.23
2023-02-27T15:45:06.341Z,1.40
2023-02-27T15:47:33.702Z,1.30
2023-02-27T15:50:23.370Z,1.30
2023-02-27T15:53:09.840Z,1.20
2023-02-27T15:55:56.160Z,1.37
2023-02-27T15:58:25.877Z,1.23
2023-02-27T16:01:12.036Z,1.40
2023-02-27T16:03:42.740Z,1.30
2023-02-27T16:06:15.242Z,1.47
2023-02-27T16:08:46.718Z,1.57
2023-02-27T16:11:25.364Z,1.10
2023-02-27T16:13:52.819Z,1.43
2023-02-27T16:16:22.490Z,1.30
2023-02-27T16:18:52.032Z,1.33
2023-02-27T16:21:21.339Z,1.50
2023-02-27T16:23:48.626Z,2.03
2023-02-27T16:26:15.274Z,1.90
2023-02-27T16:28:41.914Z,1.40
2023-02-27T16:31:28.553Z,1.17
2023-02-27T16:33:57.515Z,1.43
2023-02-27T16:36:27.280Z,1.47
2023-02-27T16:38:54.574Z,1.43
2023-02-27T16:41:22.997Z,1.13
2023-02-27T16:43:50.978Z,1.37
2023-02-27T16:46:21.652Z,1.10
2023-02-27T16:48:53.897Z,1.23
2023-02-27T16:51:24.186Z,1.10
2023-02-27T16:53:55.762Z,1.00
2023-02-27T16:56:37.393Z,1.30
2023-02-27T16:59:05.558Z,1.93
2023-02-27T17:01:34.079Z,1.20
2023-02-27T17:04:01.339Z,2.03
2023-02-27T17:06:28.990Z,1.97
2023-02-27T17:08:58.026Z,1.47
2023-02-27T17:11:24.780Z,1.47
2023-02-27T17:13:52.172Z,1.30
2023-02-27T17:16:21.309Z,1.30
2023-02-27T17:18:48.224Z,1.40
2023-02-27T17:21:14.966Z,1.40
2023-02-27T17:23:41.800Z,1.30
2023-02-27T17:26:11.606Z,1.40
2023-02-27T17:28:41.812Z,1.57
2023-02-27T17:31:12.920Z,1.20
2023-02-27T17:33:39.676Z,1.47
2023-02-27T17:36:08.658Z,1.73
2023-02-27T17:38:35.584Z,1.37
2023-02-27T17:41:14.228Z,2.00
2023-02-27T17:43:41.800Z,1.40
2023-02-27T17:46:10.559Z,1.63
2023-02-27T17:48:38.508Z,1.50
2023-02-27T17:51:06.855Z,1.60
2023-02-27T17:53:34.988Z,1.37
2023-02-27T17:56:02.755Z,1.73
2023-02-27T17:58:29.633Z,1.60
2023-02-27T18:01:07.314Z,1.30
2023-02-27T18:03:34.781Z,1.50
2023-02-27T18:06:01.720Z,1.43
2023-02-27T18:08:28.962Z,1.40
2023-02-27T18:10:55.658Z,1.30
2023-02-27T18:13:22.657Z,1.47
2023-02-27T18:15:52.518Z,1.57
2023-02-27T18:18:20.338Z,1.23
2023-02-27T18:20:47.527Z,1.43
2023-02-27T18:23:15.549Z,1.37
2023-02-27T18:25:42.549Z,1.10
2023-02-27T18:28:11.054Z,1.30
2023-02-27T18:30:39.193Z,1.40
2023-02-27T18:33:06.275Z,1.77
2023-02-27T18:35:33.162Z,1.60
2023-02-27T18:38:02.296Z,1.40
2023-02-27T18:40:30.592Z,1.50
2023-02-27T18:42:57.503Z,1.87
2023-02-27T18:45:24.848Z,1.90
2023-02-27T18:47:53.043Z,1.87
2023-02-27T18:50:19.961Z,1.63
2023-02-27T18:52:47.410Z,2.20
2023-02-27T18:55:14.859Z,1.97
2023-02-27T18:57:41.698Z,1.63
2023-02-27T19:00:09.579Z,1.77
2023-02-27T19:02:41.689Z,1.73
2023-02-27T19:05:11.237Z,2.00
2023-02-27T19:07:39.011Z,2.40
2023-02-27T19:10:07.475Z,2.00
2023-02-27T19:12:35.062Z,2.10
2023-02-27T19:15:02.128Z,2.40
2023-02-27T19:17:28.962Z,2.20
2023-02-27T19:19:55.820Z,1.90
2023-02-27T19:22:22.589Z,1.90
2023-02-27T19:24:50.188Z,2.28
2023-02-27T19:27:17.278Z,2.27
2023-02-27T19:29:44.151Z,2.25
2023-02-27T19:32:11.709Z,1.87
2023-02-27T19:34:38.699Z,2.20
2023-02-27T19:37:05.480Z,2.37
2023-02-27T19:39:32.467Z,2.70
2023-02-27T19:41:59.341Z,2.40
2023-02-27T19:44:26.785Z,2.37
2023-02-27T19:46:53.817Z,2.20
2023-02-27T19:49:20.985Z,2.43
2023-02-27T19:51:48.993Z,2.57
2023-02-27T19:54:17.251Z,2.60
2023-02-27T19:56:44.065Z,2.43
2023-02-27T19:59:11.921Z,3.00
2023-02-27T20:01:39.403Z,2.47
2023-02-27T20:04:08.009Z,2.40
2023-02-27T20:06:44.021Z,2.07
2023-02-27T20:09:14.554Z,2.43
2023-02-27T20:11:46.024Z,2.30
2023-02-27T20:14:17.378Z,2.30
2023-02-27T20:16:44.915Z,2.50
2023-02-27T20:19:17.472Z,2.40
2023-02-27T20:21:45.582Z,2.77
2023-02-27T20:24:14.345Z,2.27
2023-02-27T20:26:43.400Z,2.30
2023-02-27T20:29:12.880Z,2.80
2023-02-27T20:31:42.403Z,2.57
2023-02-27T20:34:11.460Z,2.57
2023-02-27T20:36:39.610Z,3.03
2023-02-27T20:39:07.470Z,2.70
2023-02-27T20:41:35.493Z,3.00
2023-02-27T20:44:03.298Z,2.88
2023-02-27T20:46:30.644Z,2.92
2023-02-27T20:49:00.220Z,3.20
2023-02-27T20:51:29.707Z,3.03
2023-02-27T20:53:59.233Z,3.80
2023-02-27T20:56:31.574Z,3.05
2023-02-27T20:58:59.813Z,3.05
2023-02-27T21:01:27.538Z,3.45
2023-02-27T21:03:57.463Z,2.97
2023-02-27T21:06:25.110Z,3.22
2023-02-27T21:08:54.367Z,3.08
2023-02-27T21:11:27.753Z,2.90
2023-02-27T21:13:58.487Z,2.95
2023-02-27T21:16:25.902Z,3.10
2023-02-27T21:18:53.370Z,3.00
2023-02-27T21:21:25.578Z,3.30
2023-02-27T21:23:52.367Z,3.25
2023-02-27T21:26:28.797Z,4.10
2023-02-27T21:28:58.493Z,3.38
2023-02-27T21:31:28.079Z,3.20
2023-02-27T21:33:55.375Z,3.00
2023-02-27T21:36:36.224Z,3.08
2023-02-27T21:39:12.897Z,3.15
2023-02-27T21:41:39.799Z,3.30
2023-02-27T21:44:11.584Z,3.10
2023-02-27T21:46:38.627Z,3.30
2023-02-27T21:49:14.983Z,3.07
2023-02-27T21:51:42.054Z,3.67
2023-02-27T21:54:13.639Z,3.60
2023-02-27T21:56:41.911Z,4.00
2023-02-27T21:59:09.271Z,3.70
2023-02-27T22:01:36.958Z,3.42
2023-02-27T22:04:04.228Z,3.63
2023-02-27T22:06:32.279Z,3.17
2023-02-27T22:09:01.372Z,3.65
2023-02-27T22:11:29.363Z,3.83
2023-02-27T22:13:57.045Z,3.60
2023-02-27T22:16:37.230Z,3.90
2023-02-27T22:19:08.798Z,3.73
2023-02-27T22:21:39.815Z,3.80
2023-02-27T22:24:16.386Z,3.47
2023-02-27T22:26:44.693Z,3.33
2023-02-27T22:29:15.859Z,3.63
2023-02-27T22:31:45.643Z,4.97
2023-02-27T22:34:26.328Z,3.70
2023-02-27T22:36:55.114Z,3.30
2023-02-27T22:39:22.126Z,3.42
2023-02-27T22:41:48.929Z,3.70
2023-02-27T22:44:16.401Z,4.90
2023-02-27T22:46:45.838Z,3.30
2023-02-27T22:49:21.205Z,3.83
2023-02-27T22:51:51.643Z,3.88
2023-02-27T22:54:23.100Z,3.87
2023-02-27T22:56:51.978Z,3.95
2023-02-27T22:59:26.215Z,4.18
2023-02-27T23:01:58.792Z,4.05
2023-02-27T23:04:29.879Z,4.03
2023-02-27T23:06:57.616Z,4.55
2023-02-27T23:09:26.151Z,4.25
2023-02-27T23:11:53.665Z,3.95
2023-02-27T23:14:21.524Z,4.03
2023-02-27T23:16:48.410Z,4.03
2023-02-27T23:19:17.567Z,4.13
2023-02-27T23:21:44.844Z,3.70
2023-02-27T23:24:14.332Z,4.28
2023-02-27T23:26:44.236Z,4.43
2023-02-27T23:29:11.575Z,4.30
2023-02-27T23:31:38.792Z,4.03
2023-02-27T23:34:06.509Z,4.07
2023-02-27T23:36:34.968Z,3.90
2023-02-27T23:39:05.285Z,4.07
2023-02-27T23:41:51.325Z,3.95
2023-02-27T23:44:20.052Z,3.80
2023-02-27T23:46:47.194Z,3.95
2023-02-27T23:49:14.908Z,3.75
2023-02-27T23:51:46.681Z,4.38
2023-02-27T23:54:13.735Z,3.70
2023-02-27T23:56:40.424Z,4.53
2023-02-27T23:59:07.614Z,3.70
